Time;durP1;ratioP1;P1;durP2;ratioP2;P2;SDS_P1;SDS_P2;PMS_P1;PMS_P2;Temp;Humidity;BMP_temperature;BMP_pressure;BME280_temperature;BME280_humidity;BME280_pressure;Samples;Min_cycle;Max_cycle;Signal;HPM_P1;HPM_P2
2022/06/20 00:03:26;;;;;;;11.50;5.80;;;;;;;19.78;59.08;99015.37;216064;1276;140281;-66
2022/06/20 00:08:32;;;;;;;9.00;4.90;;;;;;;19.71;59.46;99018.92;214457;1277;139906;-66
2022/06/20 00:13:40;;;;;;;7.10;5.00;;;;;;;19.59;59.58;99040.11;215794;1276;140269;-65
2022/06/20 00:18:46;;;;;;;5.90;5.20;;;;;;;19.48;60.14;99056.55;215799;1277;140470;-65
2022/06/20 00:23:51;;;;;;;5.00;4.50;;;;;;;19.34;60.18;99038.90;215857;1277;140473;-65
2022/06/20 00:28:56;;;;;;;5.90;4.60;;;;;;;19.08;60.51;99031.30;214903;1277;140168;-68
2022/06/20 00:34:01;;;;;;;4.80;4.40;;;;;;;19.03;61.16;99039.02;214440;1276;142265;-66
2022/06/20 00:39:05;;;;;;;5.90;5.40;;;;;;;19.01;61.59;99054.91;213667;1277;141527;-65
2022/06/20 00:44:14;;;;;;;5.40;4.90;;;;;;;19.02;61.95;99058.52;215072;1277;140571;-67
2022/06/20 00:49:30;;;;;;;5.30;4.80;;;;;;;18.92;62.03;99052.29;213407;1277;140142;-65
2022/06/20 00:54:39;;;;;;;5.60;4.90;;;;;;;18.80;62.67;99065.79;213679;1276;141982;-66
2022/06/20 00:59:54;;;;;;;7.90;4.60;;;;;;;18.78;62.96;99073.67;213608;1276;141006;-66
2022/06/20 01:05:14;;;;;;;11.60;6.50;;;;;;;18.75;63.27;99075.74;214473;1276;141471;-66
2022/06/20 01:10:20;;;;;;;14.70;6.00;;;;;;;18.68;63.33;99071.36;213667;1277;140893;-66
2022/06/20 01:15:32;;;;;;;6.20;5.60;;;;;;;18.57;63.70;99071.75;214676;1277;141620;-66
2022/06/20 01:20:37;;;;;;;7.30;5.00;;;;;;;18.53;64.04;99074.08;214272;1277;140976;-66
2022/06/20 01:26:03;;;;;;;7.20;5.50;;;;;;;18.44;64.26;99059.33;214284;1277;141730;-66
2022/06/20 01:31:09;;;;;;;6.30;5.90;;;;;;;18.30;64.64;99054.78;213441;1277;140483;-66
2022/06/20 01:47:04;;;;;;;10.10;6.10;;;;;;;18.05;65.73;99063.95;214620;1276;141696;-66
2022/06/20 01:52:18;;;;;;;10.40;6.30;;;;;;;17.97;65.76;99064.29;215367;1276;141478;-66
2022/06/20 01:57:23;;;;;;;6.30;5.70;;;;;;;17.94;66.20;99066.02;215169;1277;143776;-66
2022/06/20 02:02:33;;;;;;;8.30;7.30;;;;;;;17.97;66.38;99074.21;215801;1276;140503;-66
2022/06/20 02:07:40;;;;;;;9.20;5.80;;;;;;;18.02;66.42;99085.20;215654;1277;141134;-66
2022/06/20 02:12:46;;;;;;;9.00;6.60;;;;;;;18.10;66.75;99101.99;216073;1277;141055;-66
2022/06/20 02:17:53;;;;;;;6.70;6.20;;;;;;;18.14;67.12;99118.96;215372;1276;506125;-66
2022/06/20 02:22:59;;;;;;;6.80;6.40;;;;;;;18.10;66.98;99127.88;214505;1276;140373;-65
2022/06/20 02:28:08;;;;;;;9.30;6.50;;;;;;;18.08;66.88;99137.95;213341;1277;142001;-65
2022/06/20 02:33:25;;;;;;;6.90;6.30;;;;;;;18.07;66.91;99150.59;214587;1277;141154;-65
2022/06/20 02:38:30;;;;;;;4.70;4.30;;;;;;;18.09;67.15;99153.59;214378;1276;140532;-66
2022/06/20 02:43:58;;;;;;;7.60;4.20;;;;;;;18.14;67.33;99166.11;213628;1276;140997;-67
2022/06/20 02:49:09;;;;;;;7.40;4.20;;;;;;;18.18;67.19;99167.81;213490;1276;141385;-66
2022/06/20 02:54:17;;;;;;;9.40;4.20;;;;;;;18.21;67.26;99181.38;213351;1277;141882;-65
2022/06/20 02:59:27;;;;;;;6.90;3.90;;;;;;;18.16;67.22;99169.54;214998;1276;143128;-66
2022/06/20 03:04:34;;;;;;;9.70;3.70;;;;;;;18.17;67.26;99183.54;214157;1276;139444;-66
2022/06/20 03:09:42;;;;;;;5.90;3.30;;;;;;;18.24;67.28;99186.77;214941;1276;141643;-65
2022/06/20 03:14:55;;;;;;;3.60;3.00;;;;;;;18.34;67.33;99179.18;214595;1277;140484;-65
2022/06/20 03:20:04;;;;;;;7.70;3.60;;;;;;;18.39;67.13;99189.21;213968;1276;141485;-64
2022/06/20 03:25:13;;;;;;;8.30;3.50;;;;;;;18.38;67.19;99200.08;213684;1277;141907;-65
2022/06/20 03:30:18;;;;;;;13.70;4.10;;;;;;;18.37;67.23;99202.70;214581;1277;142173;-66
2022/06/20 03:35:23;;;;;;;15.90;3.00;;;;;;;18.44;67.19;99197.33;214188;1277;141255;-66
2022/06/20 03:40:28;;;;;;;4.80;3.60;;;;;;;18.58;67.37;99209.02;214306;1276;141911;-65
2022/06/20 03:45:35;;;;;;;5.30;2.40;;;;;;;18.80;67.25;99224.30;215328;1276;140309;-65
2022/06/20 03:51:06;;;;;;;3.20;2.70;;;;;;;19.00;66.92;99259.70;215810;1276;140308;-66
2022/06/20 03:56:41;;;;;;;5.90;2.80;;;;;;;19.01;66.57;99272.15;216048;1276;140332;-66
2022/06/20 04:01:52;;;;;;;9.20;3.90;;;;;;;19.00;66.48;99265.63;215797;1276;142064;-66
2022/06/20 04:07:02;;;;;;;9.90;3.20;;;;;;;19.14;66.42;99264.98;213492;1276;141794;-65
2022/06/20 04:12:12;;;;;;;5.90;3.10;;;;;;;19.38;66.15;99257.20;215128;1276;141258;-65
2022/06/20 04:23:17;;;;;;;6.90;4.40;;;;;;;19.51;66.03;99280.84;215419;1276;140909;-64
2022/06/20 04:28:33;;;;;;;8.30;5.00;;;;;;;19.27;65.87;99281.84;213284;1276;142702;-63
2022/06/20 04:33:46;;;;;;;13.50;6.10;;;;;;;19.02;66.06;99267.77;214251;1276;139879;-63
2022/06/20 04:39:37;;;;;;;9.80;6.30;;;;;;;18.80;66.46;99254.38;213929;1276;140199;-63
2022/06/20 04:45:13;;;;;;;13.10;6.50;;;;;;;18.72;66.89;99261.70;213403;1276;140248;-64
2022/06/20 04:50:22;;;;;;;10.00;5.80;;;;;;;18.77;67.15;99259.67;213678;1276;141322;-65
2022/06/20 04:55:28;;;;;;;9.70;4.20;;;;;;;19.04;67.03;99236.02;212869;1276;141142;-64
2022/06/20 05:00:41;;;;;;;13.00;6.40;;;;;;;19.29;66.91;99222.20;213558;1276;141621;-64
2022/06/20 05:05:50;;;;;;;11.30;5.70;;;;;;;19.56;66.62;99202.33;214286;1276;141418;-64
2022/06/20 05:11:04;;;;;;;10.70;4.80;;;;;;;21.37;64.48;99194.23;213569;1276;141632;-64
2022/06/20 05:16:21;;;;;;;15.30;5.70;;;;;;;24.38;61.03;99174.14;214067;1276;140432;-64
2022/06/20 05:21:31;;;;;;;8.90;5.00;;;;;;;24.19;59.68;99164.14;213691;1276;141776;-63
2022/06/20 05:26:40;;;;;;;10.10;5.10;;;;;;;24.84;58.39;99163.96;213785;1276;140856;-64
2022/06/20 05:31:52;;;;;;;8.70;5.50;;;;;;;26.21;56.33;99163.65;214016;1275;140493;-63
2022/06/20 05:37:13;;;;;;;9.00;4.60;;;;;;;25.90;55.57;99152.04;214957;1276;140281;-65
2022/06/20 05:42:18;;;;;;;4.50;4.00;;;;;;;28.12;53.04;99136.83;214702;1276;139996;-64
2022/06/20 05:47:30;;;;;;;9.50;5.00;;;;;;;27.07;51.46;99135.52;215041;1276;140649;-63
2022/06/20 05:52:35;;;;;;;10.80;4.50;;;;;;;25.71;53.02;99148.05;214773;1276;140163;-64
2022/06/20 05:57:41;;;;;;;9.30;4.00;;;;;;;24.97;53.74;99148.43;215817;1276;139804;-63
2022/06/20 06:02:53;;;;;;;9.30;4.50;;;;;;;23.72;54.35;99143.46;215847;1276;139929;-63
2022/06/20 06:08:29;;;;;;;11.30;5.40;;;;;;;22.93;56.58;99183.70;215080;1276;140045;-63
2022/06/20 06:13:58;;;;;;;9.00;4.60;;;;;;;22.60;57.90;99228.71;215896;1276;139928;-65
2022/06/20 06:19:25;;;;;;;9.80;6.70;;;;;;;22.21;57.80;99247.60;215126;1276;140500;-65
2022/06/20 06:24:30;;;;;;;8.30;7.30;;;;;;;21.80;58.11;99253.54;215181;1276;139656;-64
2022/06/20 06:29:35;;;;;;;7.60;5.80;;;;;;;21.43;58.93;99244.13;214506;1276;139786;-63
2022/06/20 06:34:53;;;;;;;10.00;6.10;;;;;;;21.97;59.41;99262.29;215157;1276;140602;-63
2022/06/20 06:40:06;;;;;;;10.80;7.60;;;;;;;24.52;57.55;99236.53;214293;1276;234478;-63
2022/06/20 06:45:21;;;;;;;6.50;5.80;;;;;;;26.10;55.69;99208.63;213867;1277;140951;-64
2022/06/20 06:50:41;;;;;;;9.60;6.50;;;;;;;28.39;52.61;99185.25;214039;1276;140562;-63
2022/06/20 06:55:53;;;;;;;9.40;6.50;;;;;;;30.25;49.78;99169.27;213595;1276;140414;-64
2022/06/20 07:01:14;;;;;;;6.80;5.20;;;;;;;31.42;46.89;99127.64;213087;1276;139824;-64
2022/06/20 07:06:32;;;;;;;7.10;4.60;;;;;;;30.56;45.76;99127.16;213556;1276;236250;-64
2022/06/20 07:11:47;;;;;;;7.20;4.90;;;;;;;29.59;45.99;99134.47;213828;1276;140393;-64
2022/06/20 07:17:03;;;;;;;6.80;4.80;;;;;;;30.31;45.89;99141.68;214190;1276;139469;-64
2022/06/20 07:22:15;;;;;;;6.90;4.60;;;;;;;30.86;44.97;99125.27;213897;1277;229936;-64
2022/06/20 07:27:42;;;;;;;8.50;5.00;;;;;;;31.32;44.84;99117.70;214508;1276;140045;-63
2022/06/20 07:32:59;;;;;;;6.80;5.90;;;;;;;31.40;44.22;99107.83;215051;1276;140473;-63
2022/06/20 07:38:11;;;;;;;7.00;4.40;;;;;;;31.39;43.77;99086.72;214192;1276;140223;-64
2022/06/20 07:43:22;;;;;;;;;;;;;;;31.07;43.92;99067.09;215349;1277;139781;-65
2022/06/20 07:48:36;;;;;;;9.90;6.20;;;;;;;30.84;44.91;99047.27;215824;1276;126479;-64
2022/06/20 07:53:49;;;;;;;8.00;5.10;;;;;;;31.02;44.95;99041.82;213944;1276;139927;-64
2022/06/20 07:59:05;;;;;;;8.00;4.70;;;;;;;30.84;45.17;99046.95;215883;1276;139634;-64
2022/06/20 08:04:12;;;;;;;7.00;5.40;;;;;;;30.74;45.10;99039.02;215454;1276;140112;-65
2022/06/20 08:09:31;;;;;;;8.90;5.60;;;;;;;30.24;45.96;99040.30;215309;1276;140530;-64
2022/06/20 08:14:42;;;;;;;9.30;5.20;;;;;;;30.55;47.09;99016.69;215925;1276;140727;-65
2022/06/20 08:19:52;;;;;;;10.00;4.80;;;;;;;30.56;46.68;99007.98;215334;1276;140212;-64
2022/06/20 08:25:15;;;;;;;9.50;5.00;;;;;;;30.53;46.38;99010.39;214844;1274;139585;-65
2022/06/20 08:30:47;;;;;;;10.60;5.50;;;;;;;30.18;47.11;98998.73;213153;1276;140166;-63
2022/06/20 08:36:22;;;;;;;7.80;5.20;;;;;;;30.07;46.97;98982.00;214108;1276;140666;-65
2022/06/20 08:41:54;;;;;;;6.50;5.40;;;;;;;29.83;47.93;98987.31;214555;1277;140271;-65
2022/06/20 08:47:02;;;;;;;10.40;6.10;;;;;;;29.74;48.28;98980.40;214418;1276;141591;-65
2022/06/20 08:52:13;;;;;;;5.20;4.70;;;;;;;29.86;48.88;98982.23;214464;1276;140068;-65
2022/06/20 08:57:21;;;;;;;8.20;5.40;;;;;;;29.93;48.68;98969.95;214141;1276;140331;-64
2022/06/20 09:03:01;;;;;;;7.40;5.20;;;;;;;30.03;49.01;98962.34;214607;1275;139687;-64
2022/06/20 09:08:30;;;;;;;10.80;5.50;;;;;;;30.33;49.58;98966.67;213400;1276;141954;-65
2022/06/20 09:14:02;;;;;;;5.30;4.50;;;;;;;30.44;48.86;98966.34;213447;1276;141620;-65
2022/06/20 09:19:13;;;;;;;12.80;5.70;;;;;;;30.33;48.47;98967.54;214600;1277;139769;-64
2022/06/20 09:25:08;;;;;;;10.90;5.80;;;;;;;30.28;47.98;98956.52;214567;1276;141126;-64
2022/06/20 09:30:57;;;;;;;8.00;5.00;;;;;;;30.26;48.71;98937.66;214427;1277;140883;-64
2022/06/20 09:36:03;;;;;;;9.10;4.50;;;;;;;30.55;48.40;98925.55;215069;1276;162445;-66
2022/06/20 09:41:43;;;;;;;9.50;4.90;;;;;;;30.70;48.20;98923.79;214599;1276;140998;-65
2022/06/20 09:47:22;;;;;;;16.50;6.30;;;;;;;30.76;47.56;98946.38;214745;1276;141366;-64
2022/06/20 09:52:50;;;;;;;14.20;6.30;;;;;;;30.42;47.36;98957.63;216011;1276;141694;-64
2022/06/20 09:58:05;;;;;;;11.10;5.30;;;;;;;30.03;49.11;98998.55;215881;1274;141967;-65
2022/06/20 10:03:39;;;;;;;6.90;6.30;;;;;;;29.47;49.59;99064.10;215893;1276;140444;-65
2022/06/20 10:09:03;;;;;;;10.60;8.40;;;;;;;28.03;48.76;99126.71;215733;1276;141091;-64
2022/06/20 10:14:32;;;;;;;9.50;7.30;;;;;;;26.36;49.20;99151.27;214580;1274;140005;-64
2022/06/20 10:20:26;;;;;;;9.60;7.50;;;;;;;25.02;50.27;99129.64;215237;1276;140767;-64
2022/06/20 10:26:04;;;;;;;10.50;8.00;;;;;;;23.88;52.40;99149.80;214997;1276;139607;-64
2022/06/20 10:31:22;;;;;;;9.90;8.00;;;;;;;23.09;54.18;99190.36;214589;1275;140462;-64
2022/06/20 10:36:51;;;;;;;10.00;9.20;;;;;;;22.40;55.46;99170.80;214970;1276;140277;-63
2022/06/20 10:42:07;;;;;;;10.30;8.20;;;;;;;21.64;56.19;99094.33;214494;1276;139903;-65
2022/06/20 10:47:20;;;;;;;7.90;7.00;;;;;;;21.09;57.73;99141.23;213856;1277;140166;-64
2022/06/20 10:52:38;;;;;;;20.00;8.00;;;;;;;20.87;58.64;99121.52;213874;1276;140268;-64
2022/06/20 10:57:56;;;;;;;8.50;7.90;;;;;;;20.76;59.00;99078.68;213696;1276;140616;-63
2022/06/20 11:03:11;;;;;;;7.00;6.50;;;;;;;20.74;59.70;99060.17;213348;1277;139559;-65
2022/06/20 11:08:43;;;;;;;7.60;6.90;;;;;;;20.83;60.24;99071.48;214461;1277;139395;-65
2022/06/20 11:14:08;;;;;;;8.10;6.90;;;;;;;21.01;61.01;99111.40;213594;1277;140246;-66
2022/06/20 11:19:27;;;;;;;9.60;7.50;;;;;;;21.14;61.02;99118.36;213796;1277;141071;-65
2022/06/20 11:24:46;;;;;;;9.50;7.40;;;;;;;21.01;60.80;99141.42;214419;1277;141290;-65
2022/06/20 11:30:13;;;;;;;8.90;8.00;;;;;;;20.70;61.15;99170.15;215381;1276;139730;-64
2022/06/20 11:35:31;;;;;;;8.80;7.90;;;;;;;20.41;61.99;99147.09;214552;1276;141817;-64
2022/06/20 11:40:40;;;;;;;8.40;7.50;;;;;;;20.17;62.34;99141.13;214191;1276;140788;-64
2022/06/20 11:46:31;;;;;;;10.70;8.70;;;;;;;20.01;62.88;99129.38;214739;1274;140856;-64
2022/06/20 11:51:56;;;;;;;10.80;9.90;;;;;;;19.94;63.52;99101.52;215291;1275;140729;-65
2022/06/20 11:57:16;;;;;;;9.60;8.80;;;;;;;20.08;63.76;99099.17;215671;1276;140405;-65
2022/06/20 12:02:56;;;;;;;10.30;9.30;;;;;;;20.17;63.61;99120.88;215797;1276;141979;-64
2022/06/20 12:08:20;;;;;;;8.50;7.80;;;;;;;20.14;64.01;99159.17;215620;1276;140952;-64
2022/06/20 12:13:31;;;;;;;10.30;8.80;;;;;;;20.20;64.46;99164.41;215843;1276;140179;-62
2022/06/20 12:24:24;;;;;;;10.30;9.40;;;;;;;20.20;64.50;99151.33;214178;1276;142244;-65
2022/06/20 12:29:34;;;;;;;9.50;8.50;;;;;;;20.11;65.02;99116.02;214802;1276;142301;-65
2022/06/20 12:34:56;;;;;;;7.80;7.00;;;;;;;20.07;65.29;99108.74;213736;1276;141185;-66
2022/06/20 12:40:22;;;;;;;10.70;9.40;;;;;;;20.05;65.57;99021.52;214234;1276;142929;-65
2022/06/20 12:45:48;;;;;;;11.30;10.30;;;;;;;19.96;65.83;99023.94;213470;1275;142538;-65
2022/06/20 12:51:08;;;;;;;10.50;9.50;;;;;;;19.83;66.43;99099.41;213462;1277;141013;-65
2022/06/20 12:56:23;;;;;;;9.50;8.40;;;;;;;19.78;67.05;99141.61;213769;1276;141032;-65
2022/06/20 13:01:58;;;;;;;11.00;9.00;;;;;;;19.68;67.32;99121.02;214176;1276;140119;-66
2022/06/20 13:07:15;;;;;;;10.80;9.70;;;;;;;19.50;67.30;99109.90;214130;1276;140710;-66
2022/06/20 13:12:22;;;;;;;8.90;8.00;;;;;;;19.37;67.76;99103.63;214737;1276;140593;-71
2022/06/20 13:17:47;;;;;;;8.60;7.90;;;;;;;19.28;68.34;99075.67;213562;1276;142061;-65
2022/06/20 13:23:29;;;;;;;10.70;7.60;;;;;;;19.21;68.56;99066.59;214234;1276;141283;-66
2022/06/20 13:29:01;;;;;;;7.50;6.90;;;;;;;19.28;68.84;99057.04;214814;1276;140886;-65
2022/06/20 13:34:16;;;;;;;9.10;7.30;;;;;;;19.38;69.28;99060.96;215839;1276;140863;-65
2022/06/20 13:40:09;;;;;;;10.30;8.80;;;;;;;19.33;69.08;99046.14;213938;1275;140335;-65
2022/06/20 13:45:53;;;;;;;14.30;11.80;;;;;;;19.51;69.58;99031.77;213503;1276;141521;-65
2022/06/20 13:51:26;;;;;;;12.80;11.60;;;;;;;19.86;69.28;98978.80;214644;1276;142397;-65
2022/06/20 13:56:33;;;;;;;16.00;14.50;;;;;;;20.20;69.16;98975.90;215796;1276;142714;-65
2022/06/20 14:01:41;;;;;;;18.00;16.20;;;;;;;20.53;68.89;98984.17;215933;1276;152746;-65
2022/06/20 14:07:01;;;;;;;18.60;16.50;;;;;;;21.00;68.78;98954.19;214404;1276;143940;-65
2022/06/20 14:12:26;;;;;;;17.70;15.80;;;;;;;21.44;67.93;98942.86;213498;1276;143071;-65
2022/06/20 14:17:33;;;;;;;28.60;21.30;;;;;;;21.49;67.39;98928.66;213299;1276;1190087;-65
2022/06/20 14:22:44;;;;;;;22.90;20.60;;;;;;;21.49;67.36;98922.79;215264;1276;141250;-65
2022/06/20 14:27:51;;;;;;;25.70;21.20;;;;;;;21.31;67.25;98919.05;213042;1276;143205;-66
2022/06/20 14:33:12;;;;;;;26.30;21.60;;;;;;;21.22;67.51;98923.63;213971;1276;140102;-64
2022/06/20 14:38:25;;;;;;;24.20;21.70;;;;;;;21.25;67.42;98927.77;214092;1276;141667;-65
2022/06/20 14:43:34;;;;;;;20.50;18.30;;;;;;;21.21;67.44;98919.60;213339;1276;141404;-65
2022/06/20 14:49:02;;;;;;;22.90;20.80;;;;;;;20.95;67.57;98925.50;213059;1276;140673;-65
2022/06/20 14:54:15;;;;;;;20.80;16.60;;;;;;;20.80;68.53;98917.19;213091;1276;163753;-65
2022/06/20 14:59:22;;;;;;;24.90;22.00;;;;;;;20.86;68.75;98915.34;212689;1276;140620;-65
2022/06/20 15:04:48;;;;;;;20.80;18.70;;;;;;;21.11;69.14;98907.50;213595;1277;141061;-65
2022/06/20 15:10:10;;;;;;;23.10;20.80;;;;;;;21.14;69.16;98896.48;213371;1276;142528;-65
2022/06/20 15:15:38;;;;;;;21.40;19.20;;;;;;;21.28;69.67;98894.21;215100;1276;140981;-65
2022/06/20 15:20:54;;;;;;;21.10;19.10;;;;;;;21.53;69.46;98869.81;213797;1276;141348;-65
2022/06/20 15:26:00;;;;;;;;;;;;;;;21.82;69.46;98853.48;213814;1276;140369;-65
2022/06/20 15:31:13;;;;;;;25.00;22.10;;;;;;;21.96;69.52;98852.68;214455;1276;126666;-65
2022/06/20 15:36:53;;;;;;;23.80;19.90;;;;;;;22.01;69.45;98858.33;213714;1276;140301;-65
2022/06/20 15:47:16;;;;;;;24.40;21.70;;;;;;;21.93;68.99;98877.92;215272;1278;141142;-66
2022/06/20 15:52:34;;;;;;;28.70;20.20;;;;;;;21.89;68.92;98885.77;215211;1277;141640;-67
2022/06/20 15:58:05;;;;;;;20.30;18.40;;;;;;;21.85;68.77;98897.57;214438;1279;141078;-66
2022/06/20 16:03:21;;;;;;;22.20;19.90;;;;;;;21.70;68.42;98902.48;214756;1279;142982;-65
2022/06/20 16:08:32;;;;;;;19.70;17.90;;;;;;;21.48;68.32;98914.46;214823;1278;140481;-64
2022/06/20 16:13:46;;;;;;;20.20;17.90;;;;;;;21.30;68.44;98924.44;215718;1276;141837;-64
2022/06/20 16:19:01;;;;;;;15.90;14.30;;;;;;;21.11;68.55;98941.59;214322;1276;141024;-64
2022/06/20 16:24:32;;;;;;;12.30;11.10;;;;;;;20.85;68.56;98959.20;214247;1277;141423;-66
2022/06/20 16:29:55;;;;;;;13.60;12.30;;;;;;;20.64;68.91;98975.02;213416;1275;142815;-65
2022/06/20 16:35:18;;;;;;;13.10;11.70;;;;;;;20.37;68.97;98978.16;213158;1277;140799;-64
2022/06/20 16:40:27;;;;;;;20.00;13.20;;;;;;;20.07;69.40;98974.67;212716;1277;139946;-64
2022/06/20 16:45:34;;;;;;;19.10;13.70;;;;;;;19.85;69.78;98989.80;213080;1277;142029;-65
2022/06/20 16:51:12;;;;;;;13.30;12.10;;;;;;;19.75;70.17;98989.77;214580;1277;141977;-65
2022/06/20 16:56:19;;;;;;;12.30;11.30;;;;;;;19.67;70.64;99012.64;213633;1276;141897;-63
2022/06/20 17:01:48;;;;;;;13.10;11.70;;;;;;;19.63;70.76;99023.73;213547;1277;140627;-63
2022/06/20 17:07:19;;;;;;;13.80;12.40;;;;;;;19.44;70.96;99019.51;214160;1276;141318;-65
2022/06/20 17:13:10;;;;;;;10.80;9.20;;;;;;;19.29;71.15;99020.09;212475;1277;141074;-64
2022/06/20 17:18:30;;;;;;;10.70;9.20;;;;;;;19.13;71.60;99003.20;213088;1277;140922;-65
2022/06/20 17:23:52;;;;;;;9.40;7.50;;;;;;;19.06;72.05;99028.23;214407;1276;140278;-65
2022/06/20 17:29:29;;;;;;;4.50;4.10;;;;;;;19.01;72.20;99043.09;214183;1276;141087;-66
2022/06/20 17:34:54;;;;;;;2.00;1.60;;;;;;;18.83;71.73;99046.30;214328;1276;140783;-68
2022/06/20 17:40:04;;;;;;;2.30;1.70;;;;;;;18.59;71.82;99036.84;215110;1277;140354;-66
2022/06/20 17:45:42;;;;;;;1.00;1.00;;;;;;;18.43;71.87;99020.64;215903;1277;141802;-66
2022/06/20 17:51:10;;;;;;;0.80;0.80;;;;;;;18.22;71.51;99014.79;215715;1277;141194;-67
2022/06/20 17:56:48;;;;;;;2.00;1.30;;;;;;;18.02;71.87;99022.30;215830;1276;141696;-66
2022/06/20 18:02:37;;;;;;;1.10;1.00;;;;;;;17.90;72.00;99029.96;215941;1276;141428;-66
2022/06/20 18:07:51;;;;;;;0.80;0.80;;;;;;;17.75;72.14;99060.33;215645;1277;139904;-66
2022/06/20 18:13:02;;;;;;;1.70;1.60;;;;;;;17.65;72.53;99051.52;214306;1277;140115;-66
2022/06/20 18:18:20;;;;;;;2.20;1.70;;;;;;;17.55;72.50;99043.58;214473;1276;140852;-66
2022/06/20 18:23:43;;;;;;;1.60;1.50;;;;;;;17.43;72.78;99049.02;214603;1277;141904;-66
2022/06/20 18:28:53;;;;;;;1.90;1.80;;;;;;;17.34;72.98;99046.39;213962;1276;140249;-66
2022/06/20 18:34:03;;;;;;;1.80;1.60;;;;;;;17.27;72.93;99051.09;213388;1277;140612;-66
2022/06/20 18:39:18;;;;;;;1.50;1.30;;;;;;;17.23;73.16;99052.23;213442;1277;140775;-66
2022/06/20 18:44:24;;;;;;;1.30;1.20;;;;;;;17.17;73.38;99052.84;214191;1276;220384;-66
2022/06/20 18:49:47;;;;;;;6.00;1.80;;;;;;;17.09;73.36;99064.99;213358;1277;140805;-66
2022/06/20 18:55:05;;;;;;;2.30;1.70;;;;;;;17.02;73.68;99070.98;213859;1277;142405;-66
2022/06/20 19:00:27;;;;;;;2.90;2.70;;;;;;;16.95;73.75;99083.52;213138;1277;142483;-67
2022/06/20 19:06:16;;;;;;;6.60;2.50;;;;;;;16.92;73.72;99067.69;214494;1277;142482;-67
2022/06/20 19:11:38;;;;;;;;;;;;;;;16.87;73.85;99048.16;213391;1276;142388;-66
2022/06/20 19:16:51;;;;;;;5.30;2.60;;;;;;;16.82;74.01;99047.54;214247;1276;128496;-67
2022/06/20 19:22:18;;;;;;;3.30;2.20;;;;;;;16.76;74.00;99039.39;213261;1277;141589;-65
2022/06/20 19:27:37;;;;;;;2.60;2.40;;;;;;;16.69;74.16;99035.77;214503;1276;145019;-66
2022/06/20 19:32:54;;;;;;;5.50;1.90;;;;;;;16.62;74.29;99044.05;215216;1276;144101;-65
2022/06/20 19:38:07;;;;;;;3.20;2.10;;;;;;;16.57;74.51;99038.45;214599;1276;141516;-65
2022/06/20 19:43:23;;;;;;;3.00;2.70;;;;;;;16.62;74.78;99047.91;214936;1276;141264;-66
2022/06/20 19:48:29;;;;;;;2.80;2.30;;;;;;;16.66;74.79;99056.17;215168;1276;140350;-66
2022/06/20 19:53:37;;;;;;;3.50;2.40;;;;;;;16.64;74.65;99056.08;215864;1276;139829;-66
2022/06/20 19:58:47;;;;;;;3.80;2.90;;;;;;;16.58;74.64;99094.25;215712;1276;141031;-66
2022/06/20 20:04:13;;;;;;;4.10;3.00;;;;;;;16.52;74.60;99102.60;215294;1276;141046;-66
2022/06/20 20:09:18;;;;;;;2.80;2.60;;;;;;;16.43;74.64;99108.42;214290;1276;141372;-66
2022/06/20 20:14:23;;;;;;;2.20;2.10;;;;;;;16.37;74.83;99117.91;215124;1276;141339;-66
2022/06/20 20:19:45;;;;;;;2.40;2.00;;;;;;;16.26;74.91;99113.14;214858;1276;141517;-66
2022/06/20 20:25:21;;;;;;;3.90;2.40;;;;;;;16.22;75.06;99128.79;214825;1276;141187;-66
2022/06/20 20:30:39;;;;;;;3.80;3.20;;;;;;;16.13;74.83;99133.90;214431;1276;142250;-66
2022/06/20 20:36:06;;;;;;;2.10;2.00;;;;;;;16.03;74.90;99133.14;213756;1276;140946;-65
2022/06/20 20:41:27;;;;;;;2.00;1.80;;;;;;;15.87;74.79;99141.42;213763;1276;139919;-66
2022/06/20 20:46:48;;;;;;;1.90;1.80;;;;;;;15.71;74.92;99142.42;213897;1276;141403;-66
2022/06/20 20:52:04;;;;;;;3.50;1.40;;;;;;;15.65;74.87;99154.84;214272;1276;141668;-66
2022/06/20 20:57:25;;;;;;;2.40;2.20;;;;;;;15.52;74.69;99163.42;213583;1276;140693;-66
2022/06/20 21:02:35;;;;;;;1.40;1.30;;;;;;;15.35;74.83;99163.04;214327;1276;141534;-66
2022/06/20 21:07:45;;;;;;;1.70;1.00;;;;;;;15.22;75.00;99166.80;213732;1276;140603;-65
2022/06/20 21:12:57;;;;;;;1.40;1.30;;;;;;;15.15;75.16;99179.89;213722;1276;140696;-67
2022/06/20 21:18:09;;;;;;;1.50;1.40;;;;;;;15.11;75.26;99179.16;213646;1277;142508;-65
2022/06/20 21:23:15;;;;;;;1.90;1.70;;;;;;;15.12;75.47;99181.89;213050;1277;140733;-65
2022/06/20 21:28:23;;;;;;;2.80;1.60;;;;;;;15.07;75.37;99182.77;214800;1276;140822;-67
2022/06/20 21:33:28;;;;;;;1.50;1.50;;;;;;;15.03;75.55;99185.58;214686;1276;140901;-67
2022/06/20 21:38:32;;;;;;;1.80;1.60;;;;;;;14.96;75.48;99193.09;216028;1276;141019;-67
2022/06/20 21:43:42;;;;;;;2.80;1.40;;;;;;;14.87;75.39;99202.97;216013;1276;141470;-67
2022/06/20 21:48:47;;;;;;;1.60;1.50;;;;;;;14.82;75.54;99215.33;215472;1276;141374;-66
2022/06/20 21:53:54;;;;;;;1.90;1.80;;;;;;;14.84;75.59;99218.33;215764;1276;140918;-66
2022/06/20 21:59:05;;;;;;;2.10;1.90;;;;;;;14.79;75.47;99219.52;215767;1276;141098;-66
2022/06/20 22:04:12;;;;;;;1.70;1.60;;;;;;;14.75;75.35;99218.77;214784;1276;141192;-67
2022/06/20 22:09:22;;;;;;;4.80;2.60;;;;;;;14.71;75.09;99219.01;215411;1275;140190;-66
2022/06/20 22:14:28;;;;;;;2.70;2.00;;;;;;;14.66;75.14;99212.70;214335;1276;141450;-66
2022/06/20 22:19:35;;;;;;;1.90;1.80;;;;;;;14.61;75.40;99209.94;214032;1276;140695;-67
2022/06/20 22:24:57;;;;;;;2.20;2.00;;;;;;;14.58;75.16;99201.96;213199;1276;141031;-67
2022/06/20 22:30:29;;;;;;;1.60;1.50;;;;;;;14.49;75.20;99199.24;214283;1276;142307;-66
2022/06/20 22:35:36;;;;;;;1.40;1.30;;;;;;;14.45;75.29;99200.96;213649;1275;143328;-67
2022/06/20 22:40:49;;;;;;;2.70;1.80;;;;;;;14.38;75.38;99204.89;213520;1277;141743;-66
2022/06/20 22:46:01;;;;;;;3.20;1.90;;;;;;;14.27;75.13;99202.55;214189;1276;140796;-65
2022/06/20 22:51:11;;;;;;;1.80;1.60;;;;;;;14.25;75.42;99208.77;213530;1277;142330;-67
2022/06/20 22:56:20;;;;;;;9.30;2.40;;;;;;;14.25;75.66;99208.98;214420;1276;140734;-67
2022/06/20 23:01:40;;;;;;;3.60;2.60;;;;;;;14.22;75.65;99216.65;213355;1276;140795;-66
2022/06/20 23:06:50;;;;;;;2.40;2.20;;;;;;;14.17;76.09;99221.38;214022;1276;140196;-66
2022/06/20 23:11:56;;;;;;;4.60;3.10;;;;;;;14.12;75.89;99220.20;214457;1276;140747;-66
2022/06/20 23:22:32;;;;;;;3.60;3.20;;;;;;;14.07;76.01;99215.29;213406;1276;140345;-67
2022/06/20 23:27:37;;;;;;;2.50;2.30;;;;;;;14.01;76.09;99213.33;215660;1276;140915;-67
2022/06/20 23:32:44;;;;;;;3.30;3.00;;;;;;;13.95;75.95;99205.44;214924;1276;140509;-66
2022/06/20 23:37:52;;;;;;;10.80;3.60;;;;;;;13.96;75.99;99199.39;215555;1276;141362;-66
2022/06/20 23:42:56;;;;;;;3.60;3.30;;;;;;;14.00;75.90;99193.38;215870;1276;141797;-67
2022/06/20 23:48:01;;;;;;;9.60;4.00;;;;;;;14.00;75.82;99181.11;214985;1276;140839;-67
2022/06/20 23:53:08;;;;;;;4.20;3.80;;;;;;;13.95;75.90;99184.98;214787;1276;140487;-66
2022/06/20 23:58:17;;;;;;;4.90;4.30;;;;;;;13.97;76.06;99169.75;215455;1276;140115;-66
